Time;durP1;ratioP1;P1;durP2;ratioP2;P2;SDS_P1;SDS_P2;PMS_P1;PMS_P2;Temp;Humidity;BMP_temperature;BMP_pressure;BME280_temperature;BME280_humidity;BME280_pressure;Samples;Min_cycle;Max_cycle;Signal;HPM_P1;HPM_P2
2021/01/31 00:01:15;;;;;;;31.52;16.73;;;;;;;-145.48;100.00;59605.97;6234954;23;20066;-80
2021/01/31 00:03:41;;;;;;;32.35;15.80;;;;;;;-145.48;100.00;59605.97;6239464;23;20299;-79
2021/01/31 00:06:06;;;;;;;27.85;15.07;;;;;;;-145.48;100.00;59605.97;6239186;23;20054;-79
2021/01/31 00:08:31;;;;;;;31.52;16.80;;;;;;;-145.48;100.00;59605.97;6240218;23;20004;-80
2021/01/31 00:10:58;;;;;;;29.13;15.07;;;;;;;-145.48;100.00;59605.97;6240542;23;20003;-80
2021/01/31 00:13:26;;;;;;;33.63;16.45;;;;;;;-145.48;100.00;59605.97;6240629;23;20031;-80
2021/01/31 00:15:52;;;;;;;28.05;16.52;;;;;;;-145.48;100.00;59605.97;6214607;23;19996;-80
2021/01/31 00:18:24;;;;;;;29.20;15.95;;;;;;;-145.48;100.00;59605.97;6241522;23;20007;-80
2021/01/31 00:20:52;;;;;;;30.58;15.93;;;;;;;-145.48;100.00;59605.97;6240384;23;20084;-80
2021/01/31 00:23:17;;;;;;;35.13;16.08;;;;;;;-145.48;100.00;59605.97;6240233;23;20362;-80
2021/01/31 00:25:43;;;;;;;30.35;15.40;;;;;;;-145.48;100.00;59605.97;6241752;23;20027;-79
2021/01/31 00:28:11;;;;;;;34.08;17.08;;;;;;;-145.48;100.00;59605.97;6244303;23;20153;-80
2021/01/31 00:30:40;;;;;;;29.63;14.48;;;;;;;-145.48;100.00;59605.97;6246566;23;20311;-80
2021/01/31 00:33:11;;;;;;;36.03;17.40;;;;;;;-145.48;100.00;59605.97;6249153;23;20306;-80
2021/01/31 00:35:39;;;;;;;30.23;15.88;;;;;;;-145.48;100.00;59605.97;6241279;23;20418;-80
2021/01/31 00:38:05;;;;;;;34.05;16.52;;;;;;;-145.48;100.00;59605.97;6219996;23;20008;-79
2021/01/31 00:40:30;;;;;;;32.42;16.00;;;;;;;-145.48;100.00;59605.97;6248495;23;20011;-80
2021/01/31 00:42:56;;;;;;;33.15;16.00;;;;;;;-145.48;100.00;59605.97;6221037;23;20004;-80
2021/01/31 00:45:24;;;;;;;32.10;16.35;;;;;;;-145.48;100.00;59605.97;6246715;23;20011;-80
2021/01/31 00:47:49;;;;;;;33.42;15.90;;;;;;;-145.48;100.00;59605.97;6245500;23;20016;-80
2021/01/31 00:50:18;;;;;;;36.83;15.90;;;;;;;-145.48;100.00;59605.97;6244450;23;20039;-80
2021/01/31 00:52:44;;;;;;;32.17;15.73;;;;;;;-145.48;100.00;59605.97;6216359;23;20003;-80
2021/01/31 00:55:10;;;;;;;31.05;14.63;;;;;;;-145.48;100.00;59605.97;6217135;23;20422;-80
2021/01/31 00:57:35;;;;;;;34.13;16.88;;;;;;;-145.48;100.00;59605.97;6242638;23;20003;-80
2021/01/31 01:00:03;;;;;;;35.72;16.27;;;;;;;-145.48;100.00;59605.97;6216548;23;20003;-80
2021/01/31 01:02:28;;;;;;;27.90;15.27;;;;;;;-145.48;100.00;59605.97;6234929;23;20433;-81
2021/01/31 01:04:53;;;;;;;35.33;16.85;;;;;;;-145.48;100.00;59605.97;6241351;23;20010;-80
2021/01/31 01:07:18;;;;;;;30.02;15.35;;;;;;;-145.48;100.00;59605.97;6216051;23;20678;-80
2021/01/31 01:09:45;;;;;;;32.28;15.88;;;;;;;-145.48;100.00;59605.97;6243142;23;20008;-81
2021/01/31 01:12:11;;;;;;;29.38;14.95;;;;;;;-145.48;100.00;59605.97;6242684;23;20000;-80
2021/01/31 01:14:37;;;;;;;35.28;16.90;;;;;;;-145.48;100.00;59605.97;6243052;23;20505;-81
2021/01/31 01:17:03;;;;;;;33.00;17.17;;;;;;;-145.48;100.00;59605.97;6243745;23;20085;-80
2021/01/31 01:19:29;;;;;;;36.75;16.73;;;;;;;-145.48;100.00;59605.97;6243146;23;20020;-81
2021/01/31 01:21:55;;;;;;;36.25;16.02;;;;;;;-145.48;100.00;59605.97;6241732;23;20492;-81
2021/01/31 01:24:20;;;;;;;32.25;16.50;;;;;;;-145.48;100.00;59605.97;6242740;23;20047;-81
2021/01/31 01:26:48;;;;;;;35.80;16.10;;;;;;;-145.48;100.00;59605.97;6215698;23;19999;-80
2021/01/31 01:29:14;;;;;;;34.08;16.63;;;;;;;-145.48;100.00;59605.97;6215702;23;20027;-80
2021/01/31 01:31:39;;;;;;;35.75;17.58;;;;;;;-145.48;100.00;59605.97;6241779;23;20418;-80
2021/01/31 01:34:05;;;;;;;29.65;15.77;;;;;;;-145.48;100.00;59605.97;6210564;23;20366;-80
2021/01/31 01:36:31;;;;;;;34.53;17.10;;;;;;;-145.48;100.00;59605.97;6244059;23;19997;-81
2021/01/31 01:38:57;;;;;;;35.35;16.63;;;;;;;-145.48;100.00;59605.97;6222818;23;20448;-80
2021/01/31 01:41:22;;;;;;;31.83;15.65;;;;;;;-145.48;100.00;59605.97;6249801;23;20095;-81
2021/01/31 01:43:51;;;;;;;32.58;16.70;;;;;;;-145.48;100.00;59605.97;6249035;23;20004;-80
2021/01/31 01:46:17;;;;;;;32.17;17.52;;;;;;;-145.48;100.00;59605.97;6246017;22;20497;-80
2021/01/31 01:48:43;;;;;;;35.38;17.48;;;;;;;-145.48;100.00;59605.97;6241824;23;20089;-80
2021/01/31 01:51:08;;;;;;;34.00;17.13;;;;;;;-145.48;100.00;59605.97;6212788;23;20060;-80
2021/01/31 01:53:37;;;;;;;34.42;16.63;;;;;;;-145.48;100.00;59605.97;6214164;23;20494;-80
2021/01/31 01:56:11;;;;;;;35.35;17.60;;;;;;;-145.48;100.00;59605.97;6215751;23;20077;-80
2021/01/31 01:58:36;;;;;;;41.10;18.38;;;;;;;-145.48;100.00;59605.97;6240243;23;20023;-80
2021/01/31 02:01:03;;;;;;;31.70;15.95;;;;;;;-145.48;100.00;59605.97;6211532;23;20414;-80
2021/01/31 02:03:32;;;;;;;40.15;18.73;;;;;;;-145.48;100.00;59605.97;6239719;23;20099;-80
2021/01/31 02:06:09;;;;;;;37.50;17.75;;;;;;;-145.48;100.00;59605.97;6240810;23;20314;-80
2021/01/31 02:08:35;;;;;;;33.63;17.10;;;;;;;-145.48;100.00;59605.97;6221175;23;20008;-80
2021/01/31 02:11:00;;;;;;;33.63;16.75;;;;;;;-145.48;100.00;59605.97;6212791;23;20018;-79
2021/01/31 02:13:27;;;;;;;35.42;16.05;;;;;;;-145.48;100.00;59605.97;6240558;23;20004;-79
2021/01/31 02:15:54;;;;;;;34.13;17.83;;;;;;;-145.48;100.00;59605.97;6241462;23;20430;-80
2021/01/31 02:18:46;;;;;;;36.22;17.42;;;;;;;-145.48;100.00;59605.97;6244619;23;20000;-80
2021/01/31 02:21:56;;;;;;;30.30;15.10;;;;;;;-145.48;100.00;59605.97;6219264;23;20007;-80
2021/01/31 02:24:39;;;;;;;34.55;15.73;;;;;;;-145.48;100.00;59605.97;6232091;23;20111;-80
2021/01/31 02:27:28;;;;;;;37.80;17.02;;;;;;;-145.48;100.00;59605.97;6241272;23;20087;-79
2021/01/31 02:30:17;;;;;;;32.50;16.95;;;;;;;-145.48;100.00;59605.97;6243498;23;20004;-80
2021/01/31 02:33:07;;;;;;;34.92;17.85;;;;;;;-145.48;100.00;59605.97;6248166;23;20011;-79
2021/01/31 02:35:35;;;;;;;38.75;18.15;;;;;;;-145.48;100.00;59605.97;6210345;23;20058;-80
2021/01/31 02:38:05;;;;;;;36.38;17.02;;;;;;;-145.48;100.00;59605.97;6212268;23;20012;-80
2021/01/31 02:40:50;;;;;;;38.10;17.83;;;;;;;-145.48;100.00;59605.97;6240101;23;20077;-80
2021/01/31 02:43:23;;;;;;;33.15;17.42;;;;;;;-145.48;100.00;59605.97;6214765;23;20043;-80
2021/01/31 02:45:58;;;;;;;36.25;16.23;;;;;;;-145.48;100.00;59605.97;6240262;23;20043;-80
2021/01/31 02:48:31;;;;;;;35.75;17.83;;;;;;;-145.48;100.00;59605.97;6241307;22;20027;-80
2021/01/31 02:51:03;;;;;;;33.10;16.95;;;;;;;-145.48;100.00;59605.97;6241213;23;20007;-80
2021/01/31 02:53:37;;;;;;;37.35;18.40;;;;;;;-145.48;100.00;59605.97;6214683;23;20511;-80
2021/01/31 02:56:10;;;;;;;43.58;19.38;;;;;;;-145.48;100.00;59605.97;6241872;23;19996;-80
2021/01/31 02:58:40;;;;;;;37.72;19.08;;;;;;;-145.48;100.00;59605.97;6240265;23;20008;-80
2021/01/31 03:01:08;;;;;;;38.17;17.60;;;;;;;-145.48;100.00;59605.97;6239226;23;20497;-80
2021/01/31 03:03:59;;;;;;;35.40;17.27;;;;;;;-145.48;100.00;59605.97;6242072;23;20368;-80
2021/01/31 03:06:29;;;;;;;39.88;18.52;;;;;;;-145.48;100.00;59605.97;6241935;23;20011;-80
2021/01/31 03:09:19;;;;;;;40.13;18.25;;;;;;;-145.48;100.00;59605.97;6242025;23;20350;-80
2021/01/31 03:12:02;;;;;;;40.75;17.63;;;;;;;-145.48;100.00;59605.97;6240013;23;20000;-79
2021/01/31 03:14:38;;;;;;;38.65;18.33;;;;;;;-145.48;100.00;59605.97;6214724;23;20416;-80
2021/01/31 03:17:08;;;;;;;;;;;;;;;-145.48;100.00;59605.97;6242740;23;20011;-80
2021/01/31 03:19:40;;;;;;;39.58;17.10;;;;;;;-145.48;100.00;59605.97;6241119;23;19908;-79
2021/01/31 03:22:14;;;;;;;37.95;18.70;;;;;;;-145.48;100.00;59605.97;6238439;23;20000;-79
2021/01/31 03:24:48;;;;;;;33.72;16.23;;;;;;;-145.48;100.00;59605.97;6241345;23;20007;-80
2021/01/31 03:27:28;;;;;;;38.42;18.77;;;;;;;-145.48;100.00;59605.97;6214387;23;20022;-81
2021/01/31 03:29:53;;;;;;;38.97;18.45;;;;;;;-145.48;100.00;59605.97;6213967;23;20085;-80
2021/01/31 03:32:30;;;;;;;42.15;19.00;;;;;;;-145.48;100.00;59605.97;6240759;23;20039;-80
2021/01/31 03:35:13;;;;;;;36.67;17.95;;;;;;;-145.48;100.00;59605.97;6234696;23;20083;-80
2021/01/31 03:37:48;;;;;;;38.17;18.45;;;;;;;-145.48;100.00;59605.97;6240325;23;20000;-79
2021/01/31 03:40:16;;;;;;;37.10;16.70;;;;;;;-145.48;100.00;59605.97;6240373;23;20368;-79
2021/01/31 03:42:45;;;;;;;39.63;18.13;;;;;;;-145.48;100.00;59605.97;6241767;23;20000;-79
2021/01/31 03:45:13;;;;;;;37.72;17.98;;;;;;;-145.48;100.00;59605.97;6241221;23;20501;-79
2021/01/31 03:47:49;;;;;;;38.85;18.55;;;;;;;-145.48;100.00;59605.97;6243058;22;20342;-80
2021/01/31 03:50:16;;;;;;;34.67;18.45;;;;;;;-145.48;100.00;59605.97;6244836;23;20004;-80
2021/01/31 03:52:41;;;;;;;36.08;17.60;;;;;;;-145.48;100.00;59605.97;6241306;23;20429;-80
2021/01/31 03:55:08;;;;;;;36.75;18.77;;;;;;;-145.48;100.00;59605.97;6241058;23;20495;-79
2021/01/31 03:57:42;;;;;;;36.17;17.73;;;;;;;-145.48;100.00;59605.97;6243537;23;20004;-80
2021/01/31 04:00:19;;;;;;;34.33;17.60;;;;;;;-145.48;100.00;59605.97;6242847;23;20398;-79
2021/01/31 04:02:52;;;;;;;38.95;19.67;;;;;;;-145.48;100.00;59605.97;6242743;23;20014;-81
2021/01/31 04:05:19;;;;;;;36.45;18.00;;;;;;;-145.48;100.00;59605.97;6242685;23;20008;-80
2021/01/31 04:07:49;;;;;;;35.53;17.80;;;;;;;-145.48;100.00;59605.97;6240994;23;20008;-79
2021/01/31 04:10:16;;;;;;;40.08;18.85;;;;;;;-145.48;100.00;59605.97;6213643;23;20008;-79
2021/01/31 04:12:45;;;;;;;37.95;19.98;;;;;;;-145.48;100.00;59605.97;6215021;23;20012;-80
2021/01/31 04:15:19;;;;;;;37.65;18.85;;;;;;;-145.48;100.00;59605.97;6243036;23;20434;-80
2021/01/31 04:17:48;;;;;;;37.03;18.70;;;;;;;-145.48;100.00;59605.97;6242441;23;20003;-80
2021/01/31 04:20:14;;;;;;;39.72;18.88;;;;;;;-145.48;100.00;59605.97;6241658;23;20434;-80
2021/01/31 04:22:39;;;;;;;37.17;18.55;;;;;;;-145.48;100.00;59605.97;6241985;23;20015;-80
2021/01/31 04:25:07;;;;;;;36.20;17.58;;;;;;;-145.48;100.00;59605.97;6242918;23;20057;-80
2021/01/31 04:27:32;;;;;;;38.25;18.38;;;;;;;-145.48;100.00;59605.97;6243383;23;20103;-80
2021/01/31 04:29:57;;;;;;;40.20;18.98;;;;;;;-145.48;100.00;59605.97;6243740;23;20465;-80
2021/01/31 04:32:22;;;;;;;41.85;19.40;;;;;;;-145.48;100.00;59605.97;6211408;23;20007;-80
2021/01/31 04:34:48;;;;;;;34.85;17.67;;;;;;;-145.48;100.00;59605.97;6239251;23;20008;-79
2021/01/31 04:37:13;;;;;;;34.03;17.48;;;;;;;-145.48;100.00;59605.97;6241027;23;20079;-80
2021/01/31 04:39:39;;;;;;;34.17;16.63;;;;;;;-145.48;100.00;59605.97;6240881;23;20232;-80
2021/01/31 04:42:07;;;;;;;34.60;17.63;;;;;;;-145.48;100.00;59605.97;6216982;23;20056;-80
2021/01/31 04:44:32;;;;;;;33.50;16.88;;;;;;;-145.48;100.00;59605.97;6244928;23;20008;-80
2021/01/31 04:47:11;;;;;;;41.83;20.02;;;;;;;-145.48;100.00;59605.97;6243197;23;20103;-80
2021/01/31 04:49:54;;;;;;;31.48;17.30;;;;;;;-145.48;100.00;59605.97;6223516;23;20004;-78
2021/01/31 04:52:38;;;;;;;35.85;19.00;;;;;;;-145.48;100.00;59605.97;6243868;23;20462;-80
2021/01/31 04:55:22;;;;;;;39.83;19.30;;;;;;;-145.48;100.00;59605.97;6212505;23;20015;-80
2021/01/31 04:58:10;;;;;;;34.47;17.35;;;;;;;-145.48;100.00;59605.97;6212347;23;20073;-78
2021/01/31 05:00:41;;;;;;;39.25;18.08;;;;;;;-145.48;100.00;59605.97;6239095;23;20003;-80
2021/01/31 05:03:07;;;;;;;36.72;18.50;;;;;;;-145.48;100.00;59605.97;6239313;23;20033;-78
2021/01/31 05:05:45;;;;;;;40.97;18.15;;;;;;;-145.48;100.00;59605.97;6241320;23;20008;-78
2021/01/31 05:08:19;;;;;;;38.97;18.73;;;;;;;-145.48;100.00;59605.97;6239475;23;20031;-78
2021/01/31 05:10:44;;;;;;;37.10;17.05;;;;;;;-145.48;100.00;59605.97;6237112;23;20023;-78
2021/01/31 05:13:39;;;;;;;34.28;17.45;;;;;;;-145.48;100.00;59605.97;6236381;23;20008;-78
2021/01/31 05:16:07;;;;;;;33.15;16.40;;;;;;;-145.48;100.00;59605.97;6212473;23;20008;-79
2021/01/31 05:18:38;;;;;;;35.92;17.17;;;;;;;-145.48;100.00;59605.97;6244049;23;20425;-78
2021/01/31 05:21:09;;;;;;;35.10;18.02;;;;;;;-145.48;100.00;59605.97;6241923;23;20062;-79
2021/01/31 05:23:38;;;;;;;37.90;19.48;;;;;;;-145.48;100.00;59605.97;6241969;23;20441;-80
2021/01/31 05:26:05;;;;;;;36.42;18.77;;;;;;;-145.48;100.00;59605.97;6213985;23;20422;-79
2021/01/31 05:28:34;;;;;;;33.88;16.98;;;;;;;-145.48;100.00;59605.97;6240766;23;20027;-78
2021/01/31 05:31:00;;;;;;;40.35;17.98;;;;;;;-145.48;100.00;59605.97;6240139;23;20031;-79
2021/01/31 05:33:25;;;;;;;36.45;18.65;;;;;;;-145.48;100.00;59605.97;6213324;23;20019;-78
2021/01/31 05:36:11;;;;;;;39.17;18.00;;;;;;;-145.48;100.00;59605.97;6240583;23;20036;-78
2021/01/31 05:38:39;;;;;;;32.25;17.77;;;;;;;-145.48;100.00;59605.97;6241092;23;20004;-78
2021/01/31 05:41:29;;;;;;;35.65;19.17;;;;;;;-145.48;100.00;59605.97;6239498;23;20057;-79
2021/01/31 05:44:18;;;;;;;37.05;17.40;;;;;;;-145.48;100.00;59605.97;6213596;23;20031;-79
2021/01/31 05:46:59;;;;;;;37.67;19.10;;;;;;;-145.48;100.00;59605.97;6189163;23;20346;-79
2021/01/31 05:49:33;;;;;;;39.38;18.52;;;;;;;-145.48;100.00;59605.97;6210627;23;20434;-78
2021/01/31 05:52:27;;;;;;;38.67;18.30;;;;;;;-145.48;100.00;59605.97;6210717;23;20042;-78
2021/01/31 05:54:53;;;;;;;46.45;21.60;;;;;;;-145.48;100.00;59605.97;6210618;23;20111;-78
2021/01/31 05:57:32;;;;;;;56.92;26.25;;;;;;;-145.48;100.00;59605.97;6210918;23;19997;-79
2021/01/31 05:59:59;;;;;;;48.35;23.42;;;;;;;-145.48;100.00;59605.97;6211175;23;20040;-79
2021/01/31 06:02:30;;;;;;;49.33;22.42;;;;;;;-145.48;100.00;59605.97;6209362;23;20015;-79
2021/01/31 06:05:16;;;;;;;58.55;26.67;;;;;;;-145.48;100.00;59605.97;6209093;23;20336;-79
2021/01/31 06:07:43;;;;;;;39.33;21.30;;;;;;;-145.48;100.00;59605.97;6210479;23;20019;-79
2021/01/31 06:10:19;;;;;;;36.35;19.15;;;;;;;-145.48;100.00;59605.97;6210827;23;20075;-79
2021/01/31 06:12:45;;;;;;;;;;;;;;;-145.48;100.00;59605.97;6209538;23;20011;-79
2021/01/31 06:15:25;;;;;;;37.67;19.75;;;;;;;-145.48;100.00;59605.97;6208991;23;19910;-79
2021/01/31 06:18:06;;;;;;;35.65;17.98;;;;;;;-145.48;100.00;59605.97;6215158;23;20050;-79
2021/01/31 06:20:38;;;;;;;35.10;18.05;;;;;;;-145.48;100.00;59605.97;6216048;23;20047;-79
2021/01/31 06:23:05;;;;;;;38.30;17.92;;;;;;;-145.48;100.00;59605.97;6209880;23;20004;-79
2021/01/31 06:25:34;;;;;;;40.78;18.67;;;;;;;-145.48;100.00;59605.97;6211564;23;20189;-79
2021/01/31 06:28:08;;;;;;;35.80;17.67;;;;;;;-145.48;100.00;59605.97;6210884;23;20016;-79
2021/01/31 06:30:37;;;;;;;37.63;18.40;;;;;;;-145.48;100.00;59605.97;6209559;23;20011;-79
2021/01/31 06:33:02;;;;;;;37.15;19.08;;;;;;;-145.48;100.00;59605.97;6214091;23;20715;-80
2021/01/31 06:35:28;;;;;;;33.25;17.38;;;;;;;-145.48;100.00;59605.97;6215937;23;20004;-79
2021/01/31 06:38:11;;;;;;;41.40;21.25;;;;;;;-145.48;100.00;59605.97;6208468;23;20415;-79
2021/01/31 06:40:55;;;;;;;45.67;22.10;;;;;;;-145.48;100.00;59605.97;6209979;23;20004;-80
2021/01/31 06:43:40;;;;;;;40.35;21.02;;;;;;;-145.48;100.00;59605.97;6212173;23;20399;-80
2021/01/31 06:46:42;;;;;;;42.95;22.25;;;;;;;-145.48;100.00;59605.97;6213456;23;20396;-80
2021/01/31 06:49:29;;;;;;;38.15;19.30;;;;;;;-145.48;100.00;59605.97;6207085;23;20025;-79
2021/01/31 06:52:13;;;;;;;37.08;19.38;;;;;;;-145.48;100.00;59605.97;6208355;23;20422;-80
2021/01/31 06:54:49;;;;;;;38.00;18.17;;;;;;;-145.48;100.00;59605.97;6209968;23;20384;-80
2021/01/31 06:57:48;;;;;;;42.13;20.80;;;;;;;-145.48;100.00;59605.97;6213745;23;20000;-81
2021/01/31 07:00:41;;;;;;;46.63;20.92;;;;;;;-145.48;100.00;59605.97;6211662;23;20709;-80
2021/01/31 07:03:25;;;;;;;51.17;24.52;;;;;;;-145.48;100.00;59605.97;6155072;23;20005;-80
2021/01/31 07:06:13;;;;;;;42.13;22.25;;;;;;;-145.48;100.00;59605.97;6210176;23;20008;-79
2021/01/31 07:09:08;;;;;;;35.65;19.27;;;;;;;-145.48;100.00;59605.97;6206164;23;20083;-80
2021/01/31 07:11:51;;;;;;;37.72;19.45;;;;;;;-145.48;100.00;59605.97;6204859;23;20063;-80
2021/01/31 07:14:40;;;;;;;38.00;19.10;;;;;;;-145.48;100.00;59605.97;6205324;23;20012;-80
2021/01/31 07:17:21;;;;;;;41.45;21.02;;;;;;;-145.48;100.00;59605.97;6207123;23;20031;-79
2021/01/31 07:19:55;;;;;;;40.25;20.42;;;;;;;-145.48;100.00;59605.97;6201659;23;20350;-80
2021/01/31 07:22:29;;;;;;;40.03;20.70;;;;;;;-145.48;100.00;59605.97;6205039;23;20319;-80
2021/01/31 07:25:01;;;;;;;43.30;19.63;;;;;;;-145.48;100.00;59605.97;6211447;23;20008;-81
2021/01/31 07:27:53;;;;;;;40.03;19.67;;;;;;;-145.48;100.00;59605.97;6207474;23;20406;-80
2021/01/31 07:30:27;;;;;;;38.42;19.35;;;;;;;-145.48;100.00;59605.97;6209728;23;20015;-80
2021/01/31 07:32:58;;;;;;;36.38;18.70;;;;;;;-145.48;100.00;59605.97;6212204;23;20008;-80
2021/01/31 07:35:32;;;;;;;39.00;20.13;;;;;;;-145.48;100.00;59605.97;6213154;23;20004;-80
2021/01/31 07:38:07;;;;;;;42.80;20.05;;;;;;;-145.48;100.00;59605.97;6213492;23;20019;-80
2021/01/31 07:40:33;;;;;;;38.75;19.52;;;;;;;-145.48;100.00;59605.97;6208017;23;20000;-79
2021/01/31 07:43:00;;;;;;;40.20;19.00;;;;;;;-145.48;100.00;59605.97;6211984;23;20011;-80
2021/01/31 07:45:26;;;;;;;41.47;18.52;;;;;;;-145.48;100.00;59605.97;6213806;23;20008;-80
2021/01/31 07:48:30;;;;;;;35.33;19.45;;;;;;;-145.48;100.00;59605.97;6233208;22;20111;-79
2021/01/31 07:50:56;;;;;;;43.08;21.38;;;;;;;-145.48;100.00;59605.97;6210252;23;20012;-79
2021/01/31 07:53:34;;;;;;;40.22;19.45;;;;;;;-145.48;100.00;59605.97;6239721;23;20012;-79
2021/01/31 07:56:21;;;;;;;38.10;19.40;;;;;;;-145.48;100.00;59605.97;6242275;23;20004;-79
2021/01/31 07:58:46;;;;;;;38.97;19.67;;;;;;;-145.48;100.00;59605.97;6241631;23;20000;-79
2021/01/31 08:01:14;;;;;;;41.47;21.15;;;;;;;-145.48;100.00;59605.97;6216611;23;20589;-79
2021/01/31 08:03:40;;;;;;;47.22;22.05;;;;;;;-145.48;100.00;59605.97;6241883;23;20004;-79
2021/01/31 08:06:30;;;;;;;40.17;20.35;;;;;;;-145.48;100.00;59605.97;6215138;23;20061;-79
2021/01/31 08:08:56;;;;;;;40.13;20.17;;;;;;;-145.48;100.00;59605.97;6240042;23;20007;-79
2021/01/31 08:11:27;;;;;;;40.42;19.23;;;;;;;-145.48;100.00;59605.97;6212284;23;20850;-79
2021/01/31 08:13:54;;;;;;;38.10;19.20;;;;;;;-145.48;100.00;59605.97;6239626;23;20086;-79
2021/01/31 08:16:47;;;;;;;45.20;20.92;;;;;;;-145.48;100.00;59605.97;6241115;23;20035;-79
2021/01/31 08:19:18;;;;;;;37.15;18.83;;;;;;;-145.48;100.00;59605.97;6214204;23;20341;-79
2021/01/31 08:22:04;;;;;;;35.88;18.17;;;;;;;-145.48;100.00;59605.97;6240205;23;20024;-79
2021/01/31 08:25:00;;;;;;;37.08;17.65;;;;;;;-145.48;100.00;59605.97;6214430;23;20091;-79
2021/01/31 08:27:37;;;;;;;33.30;17.13;;;;;;;-145.48;100.00;59605.97;6241642;23;20012;-79
2021/01/31 08:30:29;;;;;;;43.97;19.65;;;;;;;-145.48;100.00;59605.97;6241962;23;20000;-79
2021/01/31 08:33:06;;;;;;;40.22;20.35;;;;;;;-145.48;100.00;59605.97;6240453;23;20006;-79
2021/01/31 08:35:37;;;;;;;37.67;18.75;;;;;;;-145.48;100.00;59605.97;6240382;23;20008;-79
2021/01/31 08:38:24;;;;;;;32.47;16.65;;;;;;;-145.48;100.00;59605.97;6241511;23;20000;-79
2021/01/31 08:41:11;;;;;;;33.63;17.13;;;;;;;-145.48;100.00;59605.97;6213445;23;20066;-79
2021/01/31 08:43:41;;;;;;;32.10;17.15;;;;;;;-145.48;100.00;59605.97;6241233;23;19999;-78
2021/01/31 08:46:20;;;;;;;36.17;18.90;;;;;;;-145.48;100.00;59605.97;6240498;23;20087;-78
2021/01/31 08:48:50;;;;;;;34.53;18.65;;;;;;;-145.48;100.00;59605.97;6241102;23;20460;-79
2021/01/31 08:51:27;;;;;;;33.38;17.73;;;;;;;-145.48;100.00;59605.97;6239454;23;20000;-79
2021/01/31 08:54:08;;;;;;;36.00;16.75;;;;;;;-145.48;100.00;59605.97;6242800;23;20123;-78
2021/01/31 08:56:54;;;;;;;34.03;17.92;;;;;;;-145.48;100.00;59605.97;6217403;23;20421;-79
2021/01/31 08:59:39;;;;;;;29.10;14.48;;;;;;;-145.48;100.00;59605.97;6243486;23;20015;-78
2021/01/31 09:02:14;;;;;;;35.13;17.40;;;;;;;-145.48;100.00;59605.97;6242763;23;20314;-79
2021/01/31 09:04:44;;;;;;;36.40;19.17;;;;;;;-145.48;100.00;59605.97;6215624;23;20000;-79
2021/01/31 09:07:12;;;;;;;33.97;18.45;;;;;;;-145.48;100.00;59605.97;6244701;23;20303;-79
2021/01/31 09:09:41;;;;;;;36.75;18.83;;;;;;;-145.48;100.00;59605.97;6216780;23;20015;-78
2021/01/31 09:12:11;;;;;;;37.28;19.00;;;;;;;-145.48;100.00;59605.97;6215444;23;20004;-79
2021/01/31 09:14:40;;;;;;;44.70;24.00;;;;;;;-145.48;100.00;59605.97;6243209;23;20007;-79
2021/01/31 09:17:20;;;;;;;35.28;20.08;;;;;;;-145.48;100.00;59605.97;6216050;23;20000;-79
2021/01/31 09:19:46;;;;;;;33.03;17.50;;;;;;;-145.48;100.00;59605.97;6242769;23;20058;-80
2021/01/31 09:22:20;;;;;;;33.47;19.23;;;;;;;-145.48;100.00;59605.97;6242514;23;20000;-79
2021/01/31 09:24:56;;;;;;;38.40;19.83;;;;;;;-145.48;100.00;59605.97;6215832;23;20007;-79
2021/01/31 09:27:24;;;;;;;33.95;18.60;;;;;;;-145.48;100.00;59605.97;6216099;23;20012;-79
2021/01/31 09:29:57;;;;;;;31.08;17.35;;;;;;;-145.48;100.00;59605.97;6215911;23;20004;-79
2021/01/31 09:32:43;;;;;;;31.55;17.35;;;;;;;-145.48;100.00;59605.97;6215716;23;20008;-79
2021/01/31 09:35:11;;;;;;;30.42;16.92;;;;;;;-145.48;100.00;59605.97;6216862;23;20008;-79
2021/01/31 09:37:37;;;;;;;29.30;16.63;;;;;;;-145.48;100.00;59605.97;6247458;23;20012;-79
2021/01/31 09:40:07;;;;;;;31.25;17.60;;;;;;;-145.48;100.00;59605.97;6250173;23;20031;-79
2021/01/31 09:42:36;;;;;;;33.25;16.48;;;;;;;-145.48;100.00;59605.97;6243634;23;20728;-80
2021/01/31 09:45:24;;;;;;;28.23;16.63;;;;;;;-145.48;100.00;59605.97;6244284;23;20027;-79
2021/01/31 09:47:50;;;;;;;29.08;16.35;;;;;;;-145.48;100.00;59605.97;6215760;23;20020;-80
2021/01/31 09:50:16;;;;;;;27.30;16.33;;;;;;;-145.48;100.00;59605.97;6214685;23;20334;-79
2021/01/31 09:52:43;;;;;;;24.35;15.80;;;;;;;-145.48;100.00;59605.97;6213856;23;20001;-79
2021/01/31 09:55:26;;;;;;;26.88;17.08;;;;;;;-145.48;100.00;59605.97;6211965;23;20001;-80
2021/01/31 09:57:52;;;;;;;25.42;14.50;;;;;;;-145.48;100.00;59605.97;6218408;23;19996;-80
2021/01/31 10:00:26;;;;;;;24.65;15.48;;;;;;;-145.48;100.00;59605.97;6212741;23;20008;-80
2021/01/31 10:03:00;;;;;;;26.40;15.48;;;;;;;-145.48;100.00;59605.97;6212107;23;20658;-80
2021/01/31 10:05:25;;;;;;;25.77;16.23;;;;;;;-145.48;100.00;59605.97;6213967;23;20005;-81
2021/01/31 10:07:50;;;;;;;23.85;15.63;;;;;;;-145.48;100.00;59605.97;6218760;23;20009;-80
2021/01/31 10:10:39;;;;;;;22.83;14.98;;;;;;;-145.48;100.00;59605.97;6213849;23;20000;-80
2021/01/31 10:13:34;;;;;;;22.25;14.52;;;;;;;-145.48;100.00;59605.97;6210645;23;20000;-80
2021/01/31 10:16:01;;;;;;;24.55;15.32;;;;;;;-145.48;100.00;59605.97;6207750;23;20644;-80
2021/01/31 10:18:29;;;;;;;24.50;15.57;;;;;;;-145.48;100.00;59605.97;6215976;23;20008;-81
2021/01/31 10:21:20;;;;;;;24.45;14.48;;;;;;;-145.48;100.00;59605.97;6215219;23;20039;-81
2021/01/31 10:23:47;;;;;;;21.27;14.48;;;;;;;-145.48;100.00;59605.97;6222993;23;19997;-80
2021/01/31 10:26:18;;;;;;;20.58;12.80;;;;;;;-145.48;100.00;59605.97;6214577;23;20070;-80
2021/01/31 10:28:52;;;;;;;18.92;12.93;;;;;;;-145.48;100.00;59605.97;6214468;23;20083;-80
2021/01/31 10:31:39;;;;;;;19.33;13.07;;;;;;;-145.48;100.00;59605.97;6212833;23;20714;-79
2021/01/31 10:34:10;;;;;;;20.27;12.90;;;;;;;-145.48;100.00;59605.97;6213429;23;20546;-80
2021/01/31 10:36:37;;;;;;;18.85;12.82;;;;;;;-145.48;100.00;59605.97;6211631;23;20000;-80
2021/01/31 10:39:04;;;;;;;20.20;12.48;;;;;;;-145.48;100.00;59605.97;6213924;23;20008;-80
2021/01/31 10:41:30;;;;;;;20.05;13.02;;;;;;;-145.48;100.00;59605.97;6212678;23;20009;-80
2021/01/31 10:44:06;;;;;;;19.85;13.25;;;;;;;-145.48;100.00;59605.97;6213434;23;20086;-80
2021/01/31 10:46:32;;;;;;;;;;;;;;;-145.48;100.00;59605.97;6218870;22;20425;-80
2021/01/31 10:48:57;;;;;;;17.48;12.02;;;;;;;-145.48;100.00;59605.97;6217639;23;19975;-80
2021/01/31 10:51:24;;;;;;;18.92;12.90;;;;;;;-145.48;100.00;59605.97;6243106;23;20004;-80
2021/01/31 10:53:50;;;;;;;20.02;13.00;;;;;;;-145.48;100.00;59605.97;6243269;23;20341;-80
2021/01/31 10:56:18;;;;;;;17.52;12.13;;;;;;;-145.48;100.00;59605.97;6244536;23;20010;-79
2021/01/31 10:58:43;;;;;;;20.95;14.65;;;;;;;-145.48;100.00;59605.97;6243177;23;20004;-79
2021/01/31 11:01:08;;;;;;;15.88;11.40;;;;;;;-145.48;100.00;59605.97;6242668;23;20083;-80
2021/01/31 11:03:34;;;;;;;18.05;11.60;;;;;;;-145.48;100.00;59605.97;6241633;23;20000;-80
2021/01/31 11:05:59;;;;;;;16.35;11.68;;;;;;;-145.48;100.00;59605.97;6243480;23;20516;-80
2021/01/31 11:08:25;;;;;;;18.67;11.73;;;;;;;-145.48;100.00;59605.97;6216520;23;20035;-78
2021/01/31 11:10:51;;;;;;;17.25;11.75;;;;;;;-145.48;100.00;59605.97;6241664;23;20734;-78
2021/01/31 11:13:17;;;;;;;18.05;12.45;;;;;;;-145.48;100.00;59605.97;6216979;23;20015;-80
2021/01/31 11:15:42;;;;;;;20.85;13.10;;;;;;;-145.48;100.00;59605.97;6244672;23;20004;-78
2021/01/31 11:18:10;;;;;;;17.98;13.32;;;;;;;-145.48;100.00;59605.97;6242800;23;20703;-78
2021/01/31 11:20:35;;;;;;;17.13;12.10;;;;;;;-145.48;100.00;59605.97;6241121;23;20042;-78